createdAt,value
2017-03-19T00:08:06.593Z,10
2017-03-19T00:18:06.531Z,11
2017-03-19T00:28:06.624Z,13
2017-03-19T00:38:06.556Z,14
2017-03-19T00:48:06.576Z,17
2017-03-19T00:58:06.546Z,23
2017-03-19T01:08:06.621Z,29
2017-03-19T01:18:06.576Z,38
2017-03-19T01:28:06.677Z,38
2017-03-19T01:38:06.628Z,40
2017-03-19T01:48:06.558Z,35
2017-03-19T01:58:06.628Z,35
2017-03-19T02:08:06.605Z,35
2017-03-19T02:18:06.675Z,35
2017-03-19T02:28:06.596Z,34
2017-03-19T02:38:06.664Z,32
2017-03-19T02:48:06.614Z,37
2017-03-19T02:58:06.698Z,39
2017-03-19T03:08:06.675Z,36
2017-03-19T03:18:06.697Z,37
2017-03-19T03:28:06.724Z,34
2017-03-19T03:38:06.738Z,35
2017-03-19T03:48:06.683Z,31
2017-03-19T03:58:06.745Z,26
2017-03-19T04:08:06.719Z,23
2017-03-19T04:18:06.806Z,28
2017-03-19T04:28:06.756Z,25
2017-03-19T04:38:06.741Z,21
2017-03-19T04:48:06.860Z,22
2017-03-19T04:58:06.766Z,20
2017-03-19T05:08:06.872Z,21
2017-03-19T05:18:07.032Z,18
2017-03-19T05:28:06.771Z,17
2017-03-19T05:38:07.143Z,22
2017-03-19T05:48:06.824Z,19
2017-03-19T05:58:06.851Z,20
2017-03-19T06:08:06.847Z,19
2017-03-19T06:18:06.903Z,22
2017-03-19T06:28:06.842Z,22
2017-03-19T06:38:06.960Z,21
2017-03-19T06:48:06.846Z,19
2017-03-19T06:58:09.032Z,18
2017-03-19T07:08:06.925Z,21
2017-03-19T07:18:06.953Z,20
2017-03-19T07:28:06.896Z,21
2017-03-19T07:38:06.978Z,19
2017-03-19T07:48:06.923Z,17
2017-03-19T07:58:06.898Z,14
2017-03-19T08:08:06.947Z,13
2017-03-19T08:18:07.005Z,14
2017-03-19T08:28:06.962Z,13
2017-03-19T08:38:07.003Z,17
2017-03-19T08:48:06.950Z,21
2017-03-19T08:58:07.028Z,19
2017-03-19T09:08:09.649Z,25
2017-03-19T09:18:06.965Z,22
2017-03-19T09:28:07.244Z,32
2017-03-19T09:38:07.098Z,31
2017-03-19T09:48:07.071Z,30
2017-03-19T09:58:07.115Z,21
2017-03-19T10:08:07.151Z,29
2017-03-19T10:18:07.033Z,26
2017-03-19T10:28:07.123Z,25
2017-03-19T10:38:07.097Z,28
2017-03-19T10:48:07.123Z,24
2017-03-19T10:58:07.118Z,25
2017-03-19T11:08:07.132Z,23
2017-03-19T11:18:07.170Z,22
2017-03-19T11:28:07.153Z,18
2017-03-19T11:38:07.153Z,18
2017-03-19T11:48:07.266Z,21
2017-03-19T11:58:07.173Z,19
2017-03-19T12:08:07.171Z,17
2017-03-19T12:18:07.192Z,17
2017-03-19T12:28:07.825Z,20
2017-03-19T12:38:07.197Z,18
2017-03-19T12:48:07.158Z,16
2017-03-19T12:58:07.219Z,13
2017-03-19T13:08:07.419Z,15
2017-03-19T13:18:07.146Z,16
2017-03-19T13:28:07.165Z,13
2017-03-19T13:38:07.282Z,16
2017-03-19T13:48:07.697Z,11
2017-03-19T13:58:07.231Z,11
2017-03-19T14:08:07.242Z,11
2017-03-19T14:18:07.287Z,6
2017-03-19T14:28:07.295Z,5
2017-03-19T14:38:07.244Z,8
2017-03-19T14:48:07.254Z,6
2017-03-19T14:58:07.275Z,8
2017-03-19T15:08:07.303Z,7
2017-03-19T15:18:07.410Z,7
2017-03-19T15:28:07.440Z,9
2017-03-19T15:38:07.428Z,11
2017-03-19T15:48:07.348Z,10
2017-03-19T15:58:07.522Z,11
2017-03-19T16:08:07.458Z,8
2017-03-19T16:18:07.440Z,8
2017-03-19T16:28:07.363Z,8
2017-03-19T16:38:07.414Z,9
2017-03-19T16:48:07.493Z,11
2017-03-19T16:58:07.451Z,11
2017-03-19T17:08:07.462Z,11
2017-03-19T17:18:08.123Z,11
2017-03-19T17:28:07.465Z,11
2017-03-19T17:38:08.183Z,14
2017-03-19T17:48:07.555Z,16
2017-03-19T17:58:07.636Z,13
2017-03-19T18:08:07.697Z,14
2017-03-19T18:18:07.539Z,11
2017-03-19T18:28:07.716Z,13
2017-03-19T18:38:07.616Z,12
2017-03-19T18:48:07.726Z,12
2017-03-19T18:58:07.588Z,13
2017-03-19T19:08:07.903Z,14
2017-03-19T19:18:08.048Z,16
2017-03-19T19:28:07.757Z,14
2017-03-19T19:38:07.672Z,17
2017-03-19T19:48:07.950Z,12
2017-03-19T19:58:07.711Z,13
2017-03-19T20:08:07.720Z,15
2017-03-19T20:18:07.709Z,12
2017-03-19T20:28:07.750Z,6
2017-03-19T20:38:07.639Z,11
2017-03-19T20:48:07.684Z,12
2017-03-19T20:58:07.837Z,12
2017-03-19T21:08:07.729Z,10
2017-03-19T21:18:09.465Z,13
2017-03-19T21:28:07.796Z,14
2017-03-19T21:38:08.009Z,11
2017-03-19T21:48:08.006Z,13
2017-03-19T21:58:08.786Z,14
2017-03-19T22:08:08.066Z,16
2017-03-19T22:18:08.334Z,15
2017-03-19T22:28:08.072Z,15
2017-03-19T22:38:07.887Z,18
2017-03-19T22:48:07.898Z,20
2017-03-19T22:58:09.051Z,24
2017-03-19T23:08:07.828Z,19
2017-03-19T23:18:08.263Z,18
2017-03-19T23:28:07.938Z,23
2017-03-19T23:38:07.882Z,27
2017-03-19T23:48:07.807Z,18
2017-03-19T23:58:07.880Z,20
